sensor_id;sensor_type;location;lat;lon;timestamp;pressure;altitude;pressure_sealevel;temperature
76009;BMP280;64700;52.130;21.270;2023-04-03T00:00:38;101054.84;;;21.28
76009;BMP280;64700;52.130;21.270;2023-04-03T00:03:03;101069.53;;;21.31
76009;BMP280;64700;52.130;21.270;2023-04-03T00:05:28;101062.56;;;21.30
76009;BMP280;64700;52.130;21.270;2023-04-03T00:07:53;101074.66;;;21.29
76009;BMP280;64700;52.130;21.270;2023-04-03T00:10:19;101070.41;;;21.28
76009;BMP280;64700;52.130;21.270;2023-04-03T00:12:44;101065.72;;;21.28
76009;BMP280;64700;52.130;21.270;2023-04-03T00:15:09;101065.72;;;21.28
76009;BMP280;64700;52.130;21.270;2023-04-03T00:17:35;101070.72;;;21.30
76009;BMP280;64700;52.130;21.270;2023-04-03T00:20:01;101077.22;;;21.32
76009;BMP280;64700;52.130;21.270;2023-04-03T00:22:26;101083.41;;;21.33
76009;BMP280;64700;52.130;21.270;2023-04-03T00:24:53;101080.41;;;21.31
76009;BMP280;64700;52.130;21.270;2023-04-03T00:27:18;101074.50;;;21.32
76009;BMP280;64700;52.130;21.270;2023-04-03T00:29:44;101083.13;;;21.31
76009;BMP280;64700;52.130;21.270;2023-04-03T00:32:09;101078.56;;;21.28
76009;BMP280;64700;52.130;21.270;2023-04-03T00:34:34;101081.63;;;21.30
76009;BMP280;64700;52.130;21.270;2023-04-03T00:37:00;101076.03;;;21.24
76009;BMP280;64700;52.130;21.270;2023-04-03T00:39:25;101084.94;;;21.25
76009;BMP280;64700;52.130;21.270;2023-04-03T00:41:50;101082.66;;;21.23
76009;BMP280;64700;52.130;21.270;2023-04-03T00:47:05;101081.16;;;21.22
76009;BMP280;64700;52.130;21.270;2023-04-03T00:49:32;101086.44;;;21.26
76009;BMP280;64700;52.130;21.270;2023-04-03T00:51:57;101084.94;;;21.25
76009;BMP280;64700;52.130;21.270;2023-04-03T00:54:22;101089.16;;;21.26
76009;BMP280;64700;52.130;21.270;2023-04-03T00:56:48;101094.91;;;21.19
76009;BMP280;64700;52.130;21.270;2023-04-03T00:59:15;101095.34;;;21.17
76009;BMP280;64700;52.130;21.270;2023-04-03T01:01:41;101091.72;;;21.20
76009;BMP280;64700;52.130;21.270;2023-04-03T01:04:25;101098.66;;;21.21
76009;BMP280;64700;52.130;21.270;2023-04-03T01:06:51;101095.03;;;21.15
76009;BMP280;64700;52.130;21.270;2023-04-03T01:09:17;101106.66;;;21.07
76009;BMP280;64700;52.130;21.270;2023-04-03T01:11:42;101108.63;;;21.06
76009;BMP280;64700;52.130;21.270;2023-04-03T01:14:07;101104.25;;;21.09
76009;BMP280;64700;52.130;21.270;2023-04-03T01:16:32;101105.31;;;21.11
76009;BMP280;64700;52.130;21.270;2023-04-03T01:18:58;101110.00;;;21.11
76009;BMP280;64700;52.130;21.270;2023-04-03T01:26:33;101120.13;;;21.10
76009;BMP280;64700;52.130;21.270;2023-04-03T01:28:59;101118.47;;;21.13
76009;BMP280;64700;52.130;21.270;2023-04-03T01:31:26;101124.66;;;21.13
76009;BMP280;64700;52.130;21.270;2023-04-03T01:33:53;101127.38;;;21.13
76009;BMP280;64700;52.130;21.270;2023-04-03T01:36:22;101133.56;;;21.14
76009;BMP280;64700;52.130;21.270;2023-04-03T01:38:49;101137.19;;;21.11
76009;BMP280;64700;52.130;21.270;2023-04-03T01:41:15;101138.25;;;21.13
76009;BMP280;64700;52.130;21.270;2023-04-03T01:43:40;101130.09;;;21.13
76009;BMP280;64700;52.130;21.270;2023-04-03T01:46:06;101132.06;;;21.13
76009;BMP280;64700;52.130;21.270;2023-04-03T01:48:31;101145.66;;;21.13
76009;BMP280;64700;52.130;21.270;2023-04-03T01:50:57;101143.38;;;21.11
76009;BMP280;64700;52.130;21.270;2023-04-03T01:53:22;101146.41;;;21.13
76009;BMP280;64700;52.130;21.270;2023-04-03T01:55:48;101151.41;;;21.15
76009;BMP280;64700;52.130;21.270;2023-04-03T01:58:13;101144.88;;;21.12
76009;BMP280;64700;52.130;21.270;2023-04-03T02:00:38;101153.19;;;21.09
76009;BMP280;64700;52.130;21.270;2023-04-03T02:03:03;101154.72;;;21.10
76009;BMP280;64700;52.130;21.270;2023-04-03T02:05:28;101151.25;;;21.09
76009;BMP280;64700;52.130;21.270;2023-04-03T02:07:54;101161.38;;;21.09
76009;BMP280;64700;52.130;21.270;2023-04-03T02:10:19;101156.25;;;21.11
76009;BMP280;64700;52.130;21.270;2023-04-03T02:12:45;101157.44;;;21.10
76009;BMP280;64700;52.130;21.270;2023-04-03T02:15:10;101155.72;;;21.03
76009;BMP280;64700;52.130;21.270;2023-04-03T02:17:36;101152.88;;;21.07
76009;BMP280;64700;52.130;21.270;2023-04-03T02:20:01;101158.91;;;21.02
76009;BMP280;64700;52.130;21.270;2023-04-03T02:22:26;101157.41;;;21.01
76009;BMP280;64700;52.130;21.270;2023-04-03T02:24:51;101163.75;;;20.98
76009;BMP280;64700;52.130;21.270;2023-04-03T02:27:17;101162.97;;;20.97
76009;BMP280;64700;52.130;21.270;2023-04-03T02:29:42;101160.97;;;20.88
76009;BMP280;64700;52.130;21.270;2023-04-03T02:32:07;101159.31;;;20.82
76009;BMP280;64700;52.130;21.270;2023-04-03T02:34:32;101177.56;;;20.90
76009;BMP280;64700;52.130;21.270;2023-04-03T02:36:58;101165.66;;;20.88
76009;BMP280;64700;52.130;21.270;2023-04-03T02:39:23;101160.03;;;20.82
76009;BMP280;64700;52.130;21.270;2023-04-03T02:41:48;101171.06;;;20.79
76009;BMP280;64700;52.130;21.270;2023-04-03T02:44:13;101169.97;;;20.76
76009;BMP280;64700;52.130;21.270;2023-04-03T02:46:39;101168.91;;;20.74
76009;BMP280;64700;52.130;21.270;2023-04-03T02:49:05;101167.84;;;20.71
76009;BMP280;64700;52.130;21.270;2023-04-03T02:51:30;101179.91;;;20.70
76009;BMP280;64700;52.130;21.270;2023-04-03T02:53:56;101176.31;;;20.73
76009;BMP280;64700;52.130;21.270;2023-04-03T02:56:21;101173.53;;;20.86
76009;BMP280;64700;52.130;21.270;2023-04-03T02:58:46;101174.31;;;20.96
76009;BMP280;64700;52.130;21.270;2023-04-03T03:01:12;101174.91;;;21.00
76009;BMP280;64700;52.130;21.270;2023-04-03T03:03:37;101172.50;;;21.02
76009;BMP280;64700;52.130;21.270;2023-04-03T03:08:31;101176.00;;;21.02
76009;BMP280;64700;52.130;21.270;2023-04-03T03:10:56;101164.94;;;20.97
76009;BMP280;64700;52.130;21.270;2023-04-03T03:13:22;101179.00;;;21.04
76009;BMP280;64700;52.130;21.270;2023-04-03T03:15:47;101179.75;;;21.05
76009;BMP280;64700;52.130;21.270;2023-04-03T03:18:13;101190.97;;;21.07
76009;BMP280;64700;52.130;21.270;2023-04-03T03:20:39;101191.84;;;21.04
76009;BMP280;64700;52.130;21.270;2023-04-03T03:23:04;101189.75;;;21.08
76009;BMP280;64700;52.130;21.270;2023-04-03T03:25:30;101191.59;;;21.11
76009;BMP280;64700;52.130;21.270;2023-04-03T03:27:55;101194.75;;;21.09
76009;BMP280;64700;52.130;21.270;2023-04-03T03:30:20;101200.31;;;21.06
76009;BMP280;64700;52.130;21.270;2023-04-03T03:32:45;101193.56;;;21.10
76009;BMP280;64700;52.130;21.270;2023-04-03T03:35:11;101197.13;;;21.07
76009;BMP280;64700;52.130;21.270;2023-04-03T03:37:36;101195.19;;;21.08
76009;BMP280;64700;52.130;21.270;2023-04-03T03:40:01;101201.72;;;21.10
76009;BMP280;64700;52.130;21.270;2023-04-03T03:42:27;101202.56;;;21.07
76009;BMP280;64700;52.130;21.270;2023-04-03T03:44:52;101204.88;;;21.09
76009;BMP280;64700;52.130;21.270;2023-04-03T03:47:17;101208.78;;;21.08
76009;BMP280;64700;52.130;21.270;2023-04-03T03:49:43;101203.22;;;21.11
76009;BMP280;64700;52.130;21.270;2023-04-03T03:52:08;101210.63;;;21.11
76009;BMP280;64700;52.130;21.270;2023-04-03T03:54:35;101210.63;;;21.11
76009;BMP280;64700;52.130;21.270;2023-04-03T03:57:00;101208.22;;;21.13
76009;BMP280;64700;52.130;21.270;2023-04-03T03:59:26;101215.59;;;21.12
76009;BMP280;64700;52.130;21.270;2023-04-03T04:01:51;101216.38;;;21.13
76009;BMP280;64700;52.130;21.270;2023-04-03T04:04:16;101210.63;;;21.11
76009;BMP280;64700;52.130;21.270;2023-04-03T04:06:41;101212.88;;;21.12
76009;BMP280;64700;52.130;21.270;2023-04-03T04:09:08;101217.88;;;21.14
76009;BMP280;64700;52.130;21.270;2023-04-03T04:11:33;101218.78;;;21.11
76009;BMP280;64700;52.130;21.270;2023-04-03T04:13:58;101223.47;;;21.10
76009;BMP280;64700;52.130;21.270;2023-04-03T04:16:25;101219.66;;;21.08
76009;BMP280;64700;52.130;21.270;2023-04-03T04:18:50;101222.25;;;21.11
76009;BMP280;64700;52.130;21.270;2023-04-03T04:21:15;101227.69;;;21.11
76009;BMP280;64700;52.130;21.270;2023-04-03T04:23:41;101222.25;;;21.11
76009;BMP280;64700;52.130;21.270;2023-04-03T04:26:06;101223.47;;;21.10
76009;BMP280;64700;52.130;21.270;2023-04-03T04:28:31;101227.41;;;21.09
76009;BMP280;64700;52.130;21.270;2023-04-03T04:30:56;101238.28;;;21.09
76009;BMP280;64700;52.130;21.270;2023-04-03T04:33:21;101235.13;;;21.11
76009;BMP280;64700;52.130;21.270;2023-04-03T04:35:47;101244.00;;;21.11
76009;BMP280;64700;52.130;21.270;2023-04-03T04:38:12;101232.84;;;21.09
76009;BMP280;64700;52.130;21.270;2023-04-03T04:40:37;101244.75;;;21.12
76009;BMP280;64700;52.130;21.270;2023-04-03T04:43:03;101242.94;;;21.09
76009;BMP280;64700;52.130;21.270;2023-04-03T04:45:28;101241.75;;;21.10
76009;BMP280;64700;52.130;21.270;2023-04-03T04:47:55;101248.38;;;21.09
76009;BMP280;64700;52.130;21.270;2023-04-03T04:50:20;101252.16;;;21.11
76009;BMP280;64700;52.130;21.270;2023-04-03T04:52:45;101253.94;;;21.05
76009;BMP280;64700;52.130;21.270;2023-04-03T04:55:11;101257.56;;;21.02
76009;BMP280;64700;52.130;21.270;2023-04-03T04:57:36;101256.75;;;20.92
76009;BMP280;64700;52.130;21.270;2023-04-03T05:00:03;101258.38;;;21.12
76009;BMP280;64700;52.130;21.270;2023-04-03T05:02:29;101262.59;;;21.13
76009;BMP280;64700;52.130;21.270;2023-04-03T05:04:55;101266.84;;;21.14
76009;BMP280;64700;52.130;21.270;2023-04-03T05:07:20;101264.50;;;21.03
76009;BMP280;64700;52.130;21.270;2023-04-03T05:09:45;101273.75;;;21.06
76009;BMP280;64700;52.130;21.270;2023-04-03T05:12:10;101271.78;;;21.06
76009;BMP280;64700;52.130;21.270;2023-04-03T05:14:36;101272.66;;;21.03
76009;BMP280;64700;52.130;21.270;2023-04-03T05:17:01;101273.75;;;21.06
76009;BMP280;64700;52.130;21.270;2023-04-03T05:19:26;101285.63;;;20.99
76009;BMP280;64700;52.130;21.270;2023-04-03T05:21:51;101276.16;;;21.04
76009;BMP280;64700;52.130;21.270;2023-04-03T05:24:17;101297.91;;;21.04
76009;BMP280;64700;52.130;21.270;2023-04-03T05:26:42;101276.16;;;21.04
76009;BMP280;64700;52.130;21.270;2023-04-03T05:29:08;101285.28;;;21.10
76009;BMP280;64700;52.130;21.270;2023-04-03T05:31:33;101285.28;;;21.10
76009;BMP280;64700;52.130;21.270;2023-04-03T05:33:58;101290.72;;;21.10
76009;BMP280;64700;52.130;21.270;2023-04-03T05:36:23;101295.03;;;21.07
76009;BMP280;64700;52.130;21.270;2023-04-03T05:38:50;101301.59;;;21.10
76009;BMP280;64700;52.130;21.270;2023-04-03T05:41:15;101301.59;;;21.10
76009;BMP280;64700;52.130;21.270;2023-04-03T05:43:40;101300.81;;;21.09
76009;BMP280;64700;52.130;21.270;2023-04-03T05:46:13;101295.50;;;21.06
76009;BMP280;64700;52.130;21.270;2023-04-03T05:48:39;101298.22;;;21.06
76009;BMP280;64700;52.130;21.270;2023-04-03T05:51:05;101299.41;;;21.05
76009;BMP280;64700;52.130;21.270;2023-04-03T05:53:31;101299.84;;;21.03
76009;BMP280;64700;52.130;21.270;2023-04-03T05:55:57;101298.09;;;21.09
76009;BMP280;64700;52.130;21.270;2023-04-03T05:58:22;101293.53;;;21.06
76009;BMP280;64700;52.130;21.270;2023-04-03T06:00:48;101308.53;;;21.11
76009;BMP280;64700;52.130;21.270;2023-04-03T06:03:13;101312.13;;;21.08
76009;BMP280;64700;52.130;21.270;2023-04-03T06:05:38;101303.19;;;21.07
76009;BMP280;64700;52.130;21.270;2023-04-03T06:08:04;101307.41;;;20.99
76009;BMP280;64700;52.130;21.270;2023-04-03T06:10:29;101303.91;;;20.99
76009;BMP280;64700;52.130;21.270;2023-04-03T06:12:54;101308.47;;;21.02
76009;BMP280;64700;52.130;21.270;2023-04-03T06:15:20;101308.91;;;21.00
76009;BMP280;64700;52.130;21.270;2023-04-03T06:17:46;101310.13;;;20.99
76009;BMP280;64700;52.130;21.270;2023-04-03T06:20:11;101323.84;;;20.96
76009;BMP280;64700;52.130;21.270;2023-04-03T06:22:37;101317.00;;;20.91
76009;BMP280;64700;52.130;21.270;2023-04-03T06:25:02;101325.03;;;20.95
76009;BMP280;64700;52.130;21.270;2023-04-03T06:27:27;101317.97;;;20.97
76009;BMP280;64700;52.130;21.270;2023-04-03T06:29:53;101331.56;;;20.97
76009;BMP280;64700;52.130;21.270;2023-04-03T06:32:18;101323.09;;;20.95
76009;BMP280;64700;52.130;21.270;2023-04-03T06:34:43;101328.84;;;20.97
76009;BMP280;64700;52.130;21.270;2023-04-03T06:37:18;101353.00;;;20.95
76009;BMP280;64700;52.130;21.270;2023-04-03T06:39:44;101347.56;;;20.95
76009;BMP280;64700;52.130;21.270;2023-04-03T06:42:10;101345.31;;;20.94
76009;BMP280;64700;52.130;21.270;2023-04-03T06:44:35;101344.09;;;20.95
76009;BMP280;64700;52.130;21.270;2023-04-03T06:47:01;101339.88;;;20.94
76009;BMP280;64700;52.130;21.270;2023-04-03T06:49:26;101335.50;;;20.96
76009;BMP280;64700;52.130;21.270;2023-04-03T06:51:51;101335.91;;;20.95
76009;BMP280;64700;52.130;21.270;2023-04-03T06:54:17;101334.06;;;20.91
76009;BMP280;64700;52.130;21.270;2023-04-03T06:56:43;101340.63;;;20.94
76009;BMP280;64700;52.130;21.270;2023-04-03T06:59:09;101345.72;;;20.92
76009;BMP280;64700;52.130;21.270;2023-04-03T07:01:34;101341.03;;;20.92
76009;BMP280;64700;52.130;21.270;2023-04-03T07:04:00;101346.63;;;20.89
76009;BMP280;64700;52.130;21.270;2023-04-03T07:06:25;101349.84;;;20.97
76009;BMP280;64700;52.130;21.270;2023-04-03T07:08:53;101354.72;;;21.02
76009;BMP280;64700;52.130;21.270;2023-04-03T07:11:19;101361.34;;;21.01
76009;BMP280;64700;52.130;21.270;2023-04-03T07:13:45;101367.22;;;20.99
76009;BMP280;64700;52.130;21.270;2023-04-03T07:16:10;101352.88;;;20.99
76009;BMP280;64700;52.130;21.270;2023-04-03T07:18:36;101367.22;;;20.99
76009;BMP280;64700;52.130;21.270;2023-04-03T07:21:01;101350.91;;;20.99
76009;BMP280;64700;52.130;21.270;2023-04-03T07:23:27;101359.06;;;20.99
76009;BMP280;64700;52.130;21.270;2023-04-03T07:25:52;101363.75;;;20.99
76009;BMP280;64700;52.130;21.270;2023-04-03T07:28:18;101369.19;;;20.99
76009;BMP280;64700;52.130;21.270;2023-04-03T07:30:45;101372.22;;;21.01
76009;BMP280;64700;52.130;21.270;2023-04-03T07:33:11;101385.81;;;21.01
76009;BMP280;64700;52.130;21.270;2023-04-03T07:35:37;101371.78;;;21.02
76009;BMP280;64700;52.130;21.270;2023-04-03T07:38:02;101381.56;;;21.00
76009;BMP280;64700;52.130;21.270;2023-04-03T07:40:27;101378.84;;;21.00
76009;BMP280;64700;52.130;21.270;2023-04-03T07:42:52;101390.69;;;21.06
76009;BMP280;64700;52.130;21.270;2023-04-03T07:45:18;101379.47;;;21.04
76009;BMP280;64700;52.130;21.270;2023-04-03T07:47:44;101387.97;;;21.06
76009;BMP280;64700;52.130;21.270;2023-04-03T07:50:09;101378.59;;;21.07
76009;BMP280;64700;52.130;21.270;2023-04-03T07:52:34;101372.75;;;21.08
76009;BMP280;64700;52.130;21.270;2023-04-03T07:55:00;101384.06;;;21.07
76009;BMP280;64700;52.130;21.270;2023-04-03T07:57:25;101377.41;;;21.08
76009;BMP280;64700;52.130;21.270;2023-04-03T07:59:50;101382.84;;;21.08
76009;BMP280;64700;52.130;21.270;2023-04-03T08:02:15;101385.13;;;21.09
76009;BMP280;64700;52.130;21.270;2023-04-03T08:04:41;101378.50;;;21.10
76009;BMP280;64700;52.130;21.270;2023-04-03T08:07:06;101388.91;;;21.12
76009;BMP280;64700;52.130;21.270;2023-04-03T08:09:31;101399.66;;;21.15
76009;BMP280;64700;52.130;21.270;2023-04-03T08:11:57;101382.28;;;21.13
76009;BMP280;64700;52.130;21.270;2023-04-03T08:14:22;101375.66;;;21.14
76009;BMP280;64700;52.130;21.270;2023-04-03T08:16:47;101374.88;;;21.13
76009;BMP280;64700;52.130;21.270;2023-04-03T08:19:14;101383.03;;;21.13
76009;BMP280;64700;52.130;21.270;2023-04-03T08:21:40;101374.75;;;21.17
76009;BMP280;64700;52.130;21.270;2023-04-03T08:24:07;101386.69;;;21.19
76009;BMP280;64700;52.130;21.270;2023-04-03T08:26:32;101384.16;;;21.25
76009;BMP280;64700;52.130;21.270;2023-04-03T08:28:58;101389.63;;;21.25
76009;BMP280;64700;52.130;21.270;2023-04-03T08:31:23;101386.00;;;21.28
76009;BMP280;64700;52.130;21.270;2023-04-03T08:33:48;101394.00;;;21.31
76009;BMP280;64700;52.130;21.270;2023-04-03T08:36:25;101385.13;;;21.31
76009;BMP280;64700;52.130;21.270;2023-04-03T08:38:51;101395.53;;;21.32
76009;BMP280;64700;52.130;21.270;2023-04-03T08:44:02;101385.13;;;21.31
76009;BMP280;64700;52.130;21.270;2023-04-03T08:49:00;101390.84;;;21.33
76009;BMP280;64700;52.130;21.270;2023-04-03T08:51:26;101387.69;;;21.35
76009;BMP280;64700;52.130;21.270;2023-04-03T08:56:17;101397.25;;;21.39
76009;BMP280;64700;52.130;21.270;2023-04-03T08:58:50;101391.91;;;21.36
76009;BMP280;64700;52.130;21.270;2023-04-03T09:01:26;101401.59;;;21.37
76009;BMP280;64700;52.130;21.270;2023-04-03T09:03:52;101393.31;;;21.40
76009;BMP280;64700;52.130;21.270;2023-04-03T09:06:19;101402.09;;;21.44
76009;BMP280;64700;52.130;21.270;2023-04-03T09:16:56;101397.03;;;21.55
76009;BMP280;64700;52.130;21.270;2023-04-03T09:21:58;101394.88;;;21.50
76009;BMP280;64700;52.130;21.270;2023-04-03T09:24:23;101396.13;;;21.58
76009;BMP280;64700;52.130;21.270;2023-04-03T09:26:56;101394.47;;;21.61
76009;BMP280;64700;52.130;21.270;2023-04-03T09:29:24;101413.38;;;21.64
76009;BMP280;64700;52.130;21.270;2023-04-03T09:31:52;101402.81;;;21.66
76009;BMP280;64700;52.130;21.270;2023-04-03T09:34:35;101390.84;;;21.64
76009;BMP280;64700;52.130;21.270;2023-04-03T09:37:01;101404.44;;;21.64
76009;BMP280;64700;52.130;21.270;2023-04-03T09:39:31;101399.22;;;21.69
76009;BMP280;64700;52.130;21.270;2023-04-03T09:41:58;101400.25;;;21.72
76009;BMP280;64700;52.130;21.270;2023-04-03T09:44:42;101408.28;;;21.75
76009;BMP280;64700;52.130;21.270;2023-04-03T09:49:47;101411.25;;;21.59
76009;BMP280;64700;52.130;21.270;2023-04-03T09:52:20;101407.81;;;21.68
76009;BMP280;64700;52.130;21.270;2023-04-03T09:54:47;101415.34;;;21.64
76009;BMP280;64700;52.130;21.270;2023-04-03T09:57:13;101413.38;;;21.64
76009;BMP280;64700;52.130;21.270;2023-04-03T10:04:41;101408.50;;;21.90
76009;BMP280;64700;52.130;21.270;2023-04-03T10:10:00;101416.91;;;21.74
76009;BMP280;64700;52.130;21.270;2023-04-03T10:12:28;101420.28;;;21.87
76009;BMP280;64700;52.130;21.270;2023-04-03T10:14:57;101416.41;;;21.97
76009;BMP280;64700;52.130;21.270;2023-04-03T10:18:06;101409.63;;;22.02
76009;BMP280;64700;52.130;21.270;2023-04-03T10:22:46;101430.44;;;21.87
76009;BMP280;64700;52.130;21.270;2023-04-03T10:25:28;101430.31;;;21.99
76009;BMP280;64700;52.130;21.270;2023-04-03T10:48:15;101405.72;;;21.72
76009;BMP280;64700;52.130;21.270;2023-04-03T10:53:34;101407.38;;;21.69
76009;BMP280;64700;52.130;21.270;2023-04-03T11:00:53;101405.28;;;21.73
76009;BMP280;64700;52.130;21.270;2023-04-03T11:03:27;101393.44;;;21.67
76009;BMP280;64700;52.130;21.270;2023-04-03T11:05:54;101401.72;;;21.64
76009;BMP280;64700;52.130;21.270;2023-04-03T11:10:49;101402.81;;;21.66
76009;BMP280;64700;52.130;21.270;2023-04-03T11:13:27;101391.16;;;21.66
76009;BMP280;64700;52.130;21.270;2023-04-03T11:15:54;101392.25;;;21.68
76009;BMP280;64700;52.130;21.270;2023-04-03T11:18:32;101392.25;;;21.68
76009;BMP280;64700;52.130;21.270;2023-04-03T11:23:44;101406.31;;;21.67
76009;BMP280;64700;52.130;21.270;2023-04-03T11:26:21;101401.63;;;21.67
76009;BMP280;64700;52.130;21.270;2023-04-03T11:28:51;101407.06;;;21.67
76009;BMP280;64700;52.130;21.270;2023-04-03T11:34:11;101398.88;;;21.67
76009;BMP280;64700;52.130;21.270;2023-04-03T11:36:41;101391.16;;;21.66
76009;BMP280;64700;52.130;21.270;2023-04-03T11:41:46;101402.97;;;21.63
76009;BMP280;64700;52.130;21.270;2023-04-03T11:46:56;101394.31;;;21.55
76009;BMP280;64700;52.130;21.270;2023-04-03T11:52:09;101395.53;;;21.54
76009;BMP280;64700;52.130;21.270;2023-04-03T11:54:44;101391.91;;;21.57
76009;BMP280;64700;52.130;21.270;2023-04-03T11:59:54;101386.75;;;21.59
76009;BMP280;64700;52.130;21.270;2023-04-03T12:02:37;101390.22;;;21.60
76009;BMP280;64700;52.130;21.270;2023-04-03T12:05:25;101397.34;;;21.57
76009;BMP280;64700;52.130;21.270;2023-04-03T12:10:32;101388.25;;;21.60
76009;BMP280;64700;52.130;21.270;2023-04-03T12:12:58;101380.09;;;21.60
76009;BMP280;64700;52.130;21.270;2023-04-03T12:15:25;101393.84;;;21.57
76009;BMP280;64700;52.130;21.270;2023-04-03T12:17:51;101400.06;;;21.57
76009;BMP280;64700;52.130;21.270;2023-04-03T12:28:42;101381.44;;;21.56
76009;BMP280;64700;52.130;21.270;2023-04-03T12:31:09;101377.31;;;21.51
76009;BMP280;64700;52.130;21.270;2023-04-03T12:46:49;101385.28;;;21.67
76009;BMP280;64700;52.130;21.270;2023-04-03T12:52:00;101386.81;;;21.68
76009;BMP280;64700;52.130;21.270;2023-04-03T12:54:32;101389.19;;;21.66
76009;BMP280;64700;52.130;21.270;2023-04-03T12:59:36;101379.84;;;21.67
76009;BMP280;64700;52.130;21.270;2023-04-03T13:02:01;101379.09;;;21.67
76009;BMP280;64700;52.130;21.270;2023-04-03T13:04:28;101385.16;;;21.71
76009;BMP280;64700;52.130;21.270;2023-04-03T13:06:54;101380.78;;;21.73
76009;BMP280;64700;52.130;21.270;2023-04-03T13:09:23;101373.81;;;21.72
76009;BMP280;64700;52.130;21.270;2023-04-03T13:11:51;101375.91;;;21.68
76009;BMP280;64700;52.130;21.270;2023-04-03T13:14:18;101370.59;;;21.65
76009;BMP280;64700;52.130;21.270;2023-04-03T13:16:57;101373.91;;;21.60
76009;BMP280;64700;52.130;21.270;2023-04-03T13:19:24;101379.34;;;21.60
76009;BMP280;64700;52.130;21.270;2023-04-03T13:21:49;101374.22;;;21.62
76009;BMP280;64700;52.130;21.270;2023-04-03T13:24:17;101380.84;;;21.61
76009;BMP280;64700;52.130;21.270;2023-04-03T13:26:42;101375.13;;;21.59
76009;BMP280;64700;52.130;21.270;2023-04-03T13:29:17;101363.00;;;21.60
76009;BMP280;64700;52.130;21.270;2023-04-03T13:31:43;101355.31;;;21.58
76009;BMP280;64700;52.130;21.270;2023-04-03T13:36:43;101366.97;;;21.59
76009;BMP280;64700;52.130;21.270;2023-04-03T13:41:38;101360.56;;;21.53
76009;BMP280;64700;52.130;21.270;2023-04-03T13:46:41;101359.81;;;21.52
76009;BMP280;64700;52.130;21.270;2023-04-03T13:49:17;101358.47;;;21.57
76009;BMP280;64700;52.130;21.270;2023-04-03T13:51:43;101360.28;;;21.60
76009;BMP280;64700;52.130;21.270;2023-04-03T13:54:22;101358.94;;;21.55
76009;BMP280;64700;52.130;21.270;2023-04-03T13:56:52;101377.31;;;21.51
76009;BMP280;64700;52.130;21.270;2023-04-03T14:01:44;101376.16;;;21.52
76009;BMP280;64700;52.130;21.270;2023-04-03T14:04:13;101369.28;;;21.48
76009;BMP280;64700;52.130;21.270;2023-04-03T14:06:39;101375.28;;;21.55
76009;BMP280;64700;52.130;21.270;2023-04-03T14:09:05;101369.50;;;21.53
76009;BMP280;64700;52.130;21.270;2023-04-03T14:11:30;101374.19;;;21.53
76009;BMP280;64700;52.130;21.270;2023-04-03T14:14:00;101375.34;;;21.52
76009;BMP280;64700;52.130;21.270;2023-04-03T14:16:27;101383.53;;;21.52
76009;BMP280;64700;52.130;21.270;2023-04-03T14:18:54;101378.09;;;21.52
76009;BMP280;64700;52.130;21.270;2023-04-03T14:21:20;101378.56;;;21.50
76009;BMP280;64700;52.130;21.270;2023-04-03T14:23:46;101368.88;;;21.49
76009;BMP280;64700;52.130;21.270;2023-04-03T14:26:16;101370.81;;;21.49
76009;BMP280;64700;52.130;21.270;2023-04-03T14:28:42;101375.97;;;21.47
76009;BMP280;64700;52.130;21.270;2023-04-03T14:31:09;101369.78;;;21.46
76009;BMP280;64700;52.130;21.270;2023-04-03T14:33:35;101369.78;;;21.46
76009;BMP280;64700;52.130;21.270;2023-04-03T14:36:04;101376.13;;;21.43
76009;BMP280;64700;52.130;21.270;2023-04-03T14:38:30;101367.19;;;21.43
76009;BMP280;64700;52.130;21.270;2023-04-03T14:40:56;101378.50;;;21.41
76009;BMP280;64700;52.130;21.270;2023-04-03T14:43:21;101383.53;;;21.43
76009;BMP280;64700;52.130;21.270;2023-04-03T14:45:47;101370.34;;;21.41
76009;BMP280;64700;52.130;21.270;2023-04-03T14:48:20;101377.59;;;21.44
76009;BMP280;64700;52.130;21.270;2023-04-03T14:50:46;101371.41;;;21.44
76009;BMP280;64700;52.130;21.270;2023-04-03T14:53:11;101371.56;;;21.40
76009;BMP280;64700;52.130;21.270;2023-04-03T14:55:38;101374.72;;;21.39
76009;BMP280;64700;52.130;21.270;2023-04-03T14:58:03;101375.16;;;21.37
76009;BMP280;64700;52.130;21.270;2023-04-03T15:00:28;101379.53;;;21.35
76009;BMP280;64700;52.130;21.270;2023-04-03T15:02:54;101375.44;;;21.30
76009;BMP280;64700;52.130;21.270;2023-04-03T15:05:19;101376.50;;;21.32
76009;BMP280;64700;52.130;21.270;2023-04-03T15:07:47;101376.50;;;21.32
76009;BMP280;64700;52.130;21.270;2023-04-03T15:12:41;101373.78;;;21.32
76009;BMP280;64700;52.130;21.270;2023-04-03T15:15:07;101374.09;;;21.35
76009;BMP280;64700;52.130;21.270;2023-04-03T15:17:32;101375.59;;;21.36
76009;BMP280;64700;52.130;21.270;2023-04-03T15:19:58;101379.97;;;21.33
76009;BMP280;64700;52.130;21.270;2023-04-03T15:22:24;101376.94;;;21.31
76009;BMP280;64700;52.130;21.270;2023-04-03T15:24:49;101377.41;;;21.29
76009;BMP280;64700;52.130;21.270;2023-04-03T15:27:14;101373.91;;;21.29
76009;BMP280;64700;52.130;21.270;2023-04-03T15:29:40;101374.34;;;21.27
76009;BMP280;64700;52.130;21.270;2023-04-03T15:32:06;101382.06;;;21.29
76009;BMP280;64700;52.130;21.270;2023-04-03T15:34:31;101384.50;;;21.27
76009;BMP280;64700;52.130;21.270;2023-04-03T15:36:57;101381.78;;;21.27
76009;BMP280;64700;52.130;21.270;2023-04-03T15:39:22;101375.56;;;21.26
76009;BMP280;64700;52.130;21.270;2023-04-03T15:41:48;101377.53;;;21.26
76009;BMP280;64700;52.130;21.270;2023-04-03T15:44:14;101384.50;;;21.27
76009;BMP280;64700;52.130;21.270;2023-04-03T15:46:42;101379.34;;;21.29
76009;BMP280;64700;52.130;21.270;2023-04-03T15:49:07;101374.06;;;21.25
76009;BMP280;64700;52.130;21.270;2023-04-03T15:51:33;101370.13;;;21.26